sensor_id;sensor_type;location;lat;lon;timestamp;P1;durP1;ratioP1;P2;durP2;ratioP2
52888;SDS011;41413;52.770;6.892;2022-07-15T00:02:24;4.28;;;2.83;;
52888;SDS011;41413;52.770;6.892;2022-07-15T00:04:51;3.95;;;2.47;;
52888;SDS011;41413;52.770;6.892;2022-07-15T00:07:18;2.90;;;1.98;;
52888;SDS011;41413;52.770;6.892;2022-07-15T00:09:46;2.45;;;2.00;;
52888;SDS011;41413;52.770;6.892;2022-07-15T00:12:31;5.90;;;2.72;;
52888;SDS011;41413;52.770;6.892;2022-07-15T00:14:58;7.97;;;2.72;;
52888;SDS011;41413;52.770;6.892;2022-07-15T00:17:25;8.52;;;3.20;;
52888;SDS011;41413;52.770;6.892;2022-07-15T00:19:52;5.30;;;2.42;;
52888;SDS011;41413;52.770;6.892;2022-07-15T00:22:20;5.93;;;2.78;;
52888;SDS011;41413;52.770;6.892;2022-07-15T00:24:46;5.55;;;3.17;;
52888;SDS011;41413;52.770;6.892;2022-07-15T00:27:13;8.30;;;3.30;;
52888;SDS011;41413;52.770;6.892;2022-07-15T00:29:40;4.70;;;2.47;;
52888;SDS011;41413;52.770;6.892;2022-07-15T00:32:07;5.43;;;2.30;;
52888;SDS011;41413;52.770;6.892;2022-07-15T00:34:34;5.82;;;3.20;;
52888;SDS011;41413;52.770;6.892;2022-07-15T00:37:01;8.80;;;3.42;;
52888;SDS011;41413;52.770;6.892;2022-07-15T00:39:27;4.55;;;3.22;;
52888;SDS011;41413;52.770;6.892;2022-07-15T00:41:55;5.60;;;3.10;;
52888;SDS011;41413;52.770;6.892;2022-07-15T00:44:21;7.22;;;2.55;;
52888;SDS011;41413;52.770;6.892;2022-07-15T00:46:48;8.18;;;3.22;;
52888;SDS011;41413;52.770;6.892;2022-07-15T00:49:15;8.50;;;2.88;;
52888;SDS011;41413;52.770;6.892;2022-07-15T00:51:43;6.30;;;2.38;;
52888;SDS011;41413;52.770;6.892;2022-07-15T00:54:12;2.40;;;2.20;;
52888;SDS011;41413;52.770;6.892;2022-07-15T00:56:47;7.07;;;2.58;;
52888;SDS011;41413;52.770;6.892;2022-07-15T01:01:44;8.38;;;3.70;;
52888;SDS011;41413;52.770;6.892;2022-07-15T01:04:12;4.28;;;2.40;;
52888;SDS011;41413;52.770;6.892;2022-07-15T01:06:39;4.88;;;2.75;;
52888;SDS011;41413;52.770;6.892;2022-07-15T01:09:06;13.88;;;3.80;;
52888;SDS011;41413;52.770;6.892;2022-07-15T01:11:32;5.55;;;2.72;;
52888;SDS011;41413;52.770;6.892;2022-07-15T01:13:59;8.13;;;3.78;;
52888;SDS011;41413;52.770;6.892;2022-07-15T01:16:27;7.68;;;2.75;;
52888;SDS011;41413;52.770;6.892;2022-07-15T01:18:54;6.25;;;3.13;;
52888;SDS011;41413;52.770;6.892;2022-07-15T01:21:22;5.32;;;2.42;;
52888;SDS011;41413;52.770;6.892;2022-07-15T01:23:48;6.70;;;3.22;;
52888;SDS011;41413;52.770;6.892;2022-07-15T01:26:15;7.35;;;2.60;;
52888;SDS011;41413;52.770;6.892;2022-07-15T01:28:43;4.38;;;2.47;;
52888;SDS011;41413;52.770;6.892;2022-07-15T01:31:10;6.68;;;2.35;;
52888;SDS011;41413;52.770;6.892;2022-07-15T01:33:37;6.13;;;2.60;;
52888;SDS011;41413;52.770;6.892;2022-07-15T01:36:04;7.07;;;3.25;;
52888;SDS011;41413;52.770;6.892;2022-07-15T01:38:32;7.00;;;3.00;;
52888;SDS011;41413;52.770;6.892;2022-07-15T01:41:13;5.40;;;2.67;;
52888;SDS011;41413;52.770;6.892;2022-07-15T01:43:40;5.60;;;3.22;;
52888;SDS011;41413;52.770;6.892;2022-07-15T01:46:07;8.15;;;3.35;;
52888;SDS011;41413;52.770;6.892;2022-07-15T01:48:34;6.82;;;2.42;;
52888;SDS011;41413;52.770;6.892;2022-07-15T01:51:19;5.75;;;2.97;;
52888;SDS011;41413;52.770;6.892;2022-07-15T01:53:46;9.23;;;3.55;;
52888;SDS011;41413;52.770;6.892;2022-07-15T01:56:12;6.43;;;2.75;;
52888;SDS011;41413;52.770;6.892;2022-07-15T01:58:39;7.00;;;2.60;;
52888;SDS011;41413;52.770;6.892;2022-07-15T02:01:06;9.07;;;2.63;;
52888;SDS011;41413;52.770;6.892;2022-07-15T02:03:34;5.35;;;2.67;;
52888;SDS011;41413;52.770;6.892;2022-07-15T02:06:01;9.82;;;3.00;;
52888;SDS011;41413;52.770;6.892;2022-07-15T02:08:27;5.55;;;2.72;;
52888;SDS011;41413;52.770;6.892;2022-07-15T02:10:54;10.15;;;3.63;;
52888;SDS011;41413;52.770;6.892;2022-07-15T02:13:21;6.32;;;3.15;;
52888;SDS011;41413;52.770;6.892;2022-07-15T02:15:48;4.68;;;2.22;;
52888;SDS011;41413;52.770;6.892;2022-07-15T02:18:14;7.35;;;2.60;;
52888;SDS011;41413;52.770;6.892;2022-07-15T02:20:41;5.50;;;3.17;;
52888;SDS011;41413;52.770;6.892;2022-07-15T02:23:08;11.88;;;2.67;;
52888;SDS011;41413;52.770;6.892;2022-07-15T02:25:35;11.15;;;2.92;;
52888;SDS011;41413;52.770;6.892;2022-07-15T02:28:03;9.57;;;2.80;;
52888;SDS011;41413;52.770;6.892;2022-07-15T02:30:38;6.95;;;2.65;;
52888;SDS011;41413;52.770;6.892;2022-07-15T02:33:06;5.55;;;2.70;;
52888;SDS011;41413;52.770;6.892;2022-07-15T02:35:33;3.78;;;2.60;;
52888;SDS011;41413;52.770;6.892;2022-07-15T02:38:00;11.15;;;3.15;;
52888;SDS011;41413;52.770;6.892;2022-07-15T02:40:28;2.83;;;2.13;;
52888;SDS011;41413;52.770;6.892;2022-07-15T02:42:56;2.92;;;2.60;;
52888;SDS011;41413;52.770;6.892;2022-07-15T02:45:26;12.85;;;3.38;;
52888;SDS011;41413;52.770;6.892;2022-07-15T02:47:54;7.53;;;2.30;;
52888;SDS011;41413;52.770;6.892;2022-07-15T02:50:21;6.45;;;3.10;;
52888;SDS011;41413;52.770;6.892;2022-07-15T02:52:49;4.75;;;2.92;;
52888;SDS011;41413;52.770;6.892;2022-07-15T02:55:15;7.80;;;2.60;;
52888;SDS011;41413;52.770;6.892;2022-07-15T02:57:43;5.75;;;2.97;;
52888;SDS011;41413;52.770;6.892;2022-07-15T03:00:12;7.03;;;2.72;;
52888;SDS011;41413;52.770;6.892;2022-07-15T03:02:40;8.57;;;3.03;;
52888;SDS011;41413;52.770;6.892;2022-07-15T03:05:07;6.78;;;2.38;;
52888;SDS011;41413;52.770;6.892;2022-07-15T03:07:35;6.07;;;2.00;;
52888;SDS011;41413;52.770;6.892;2022-07-15T03:10:02;4.25;;;2.33;;
52888;SDS011;41413;52.770;6.892;2022-07-15T03:12:29;6.40;;;2.95;;
52888;SDS011;41413;52.770;6.892;2022-07-15T03:14:56;4.93;;;2.60;;
52888;SDS011;41413;52.770;6.892;2022-07-15T03:17:23;8.00;;;2.45;;
52888;SDS011;41413;52.770;6.892;2022-07-15T03:19:50;11.13;;;2.45;;
52888;SDS011;41413;52.770;6.892;2022-07-15T03:22:16;5.25;;;2.70;;
52888;SDS011;41413;52.770;6.892;2022-07-15T03:24:43;6.60;;;3.33;;
52888;SDS011;41413;52.770;6.892;2022-07-15T03:27:10;4.50;;;2.38;;
52888;SDS011;41413;52.770;6.892;2022-07-15T03:29:37;9.60;;;2.88;;
52888;SDS011;41413;52.770;6.892;2022-07-15T03:32:04;6.20;;;2.60;;
52888;SDS011;41413;52.770;6.892;2022-07-15T03:34:31;4.35;;;2.33;;
52888;SDS011;41413;52.770;6.892;2022-07-15T03:36:58;8.68;;;3.13;;
52888;SDS011;41413;52.770;6.892;2022-07-15T03:39:25;4.45;;;3.10;;
52888;SDS011;41413;52.770;6.892;2022-07-15T03:41:52;6.20;;;2.67;;
52888;SDS011;41413;52.770;6.892;2022-07-15T03:44:19;3.30;;;2.25;;
52888;SDS011;41413;52.770;6.892;2022-07-15T03:46:46;10.63;;;2.60;;
52888;SDS011;41413;52.770;6.892;2022-07-15T03:49:13;5.93;;;2.60;;
52888;SDS011;41413;52.770;6.892;2022-07-15T03:51:42;9.10;;;2.85;;
52888;SDS011;41413;52.770;6.892;2022-07-15T03:54:09;3.70;;;2.63;;
52888;SDS011;41413;52.770;6.892;2022-07-15T03:56:36;5.78;;;2.60;;
52888;SDS011;41413;52.770;6.892;2022-07-15T03:59:03;7.57;;;2.75;;
52888;SDS011;41413;52.770;6.892;2022-07-15T04:01:30;5.75;;;2.95;;
52888;SDS011;41413;52.770;6.892;2022-07-15T04:03:57;6.25;;;2.83;;
52888;SDS011;41413;52.770;6.892;2022-07-15T04:06:24;6.10;;;2.30;;
52888;SDS011;41413;52.770;6.892;2022-07-15T04:08:51;6.40;;;3.70;;
52888;SDS011;41413;52.770;6.892;2022-07-15T04:11:18;5.90;;;3.35;;
52888;SDS011;41413;52.770;6.892;2022-07-15T04:13:45;8.80;;;3.13;;
52888;SDS011;41413;52.770;6.892;2022-07-15T04:16:13;6.93;;;3.88;;
52888;SDS011;41413;52.770;6.892;2022-07-15T04:18:40;5.72;;;2.78;;
52888;SDS011;41413;52.770;6.892;2022-07-15T04:21:08;5.53;;;2.83;;
52888;SDS011;41413;52.770;6.892;2022-07-15T04:23:35;3.40;;;2.75;;
52888;SDS011;41413;52.770;6.892;2022-07-15T04:26:02;6.43;;;2.83;;
52888;SDS011;41413;52.770;6.892;2022-07-15T04:28:29;8.25;;;2.92;;
52888;SDS011;41413;52.770;6.892;2022-07-15T04:30:56;6.80;;;2.65;;
52888;SDS011;41413;52.770;6.892;2022-07-15T04:33:23;4.85;;;2.95;;
52888;SDS011;41413;52.770;6.892;2022-07-15T04:35:50;6.45;;;2.67;;
52888;SDS011;41413;52.770;6.892;2022-07-15T04:38:16;2.75;;;2.10;;
52888;SDS011;41413;52.770;6.892;2022-07-15T04:40:43;9.68;;;2.70;;
52888;SDS011;41413;52.770;6.892;2022-07-15T04:43:11;4.95;;;2.97;;
52888;SDS011;41413;52.770;6.892;2022-07-15T04:45:38;6.43;;;3.33;;
52888;SDS011;41413;52.770;6.892;2022-07-15T04:48:05;6.72;;;3.20;;
52888;SDS011;41413;52.770;6.892;2022-07-15T04:50:52;5.95;;;2.83;;
52888;SDS011;41413;52.770;6.892;2022-07-15T04:53:19;8.57;;;2.45;;
52888;SDS011;41413;52.770;6.892;2022-07-15T04:55:47;5.95;;;2.90;;
52888;SDS011;41413;52.770;6.892;2022-07-15T04:58:14;6.80;;;2.95;;
52888;SDS011;41413;52.770;6.892;2022-07-15T05:00:42;4.00;;;2.10;;
52888;SDS011;41413;52.770;6.892;2022-07-15T05:03:09;6.55;;;2.85;;
52888;SDS011;41413;52.770;6.892;2022-07-15T05:05:36;8.93;;;3.08;;
52888;SDS011;41413;52.770;6.892;2022-07-15T05:08:03;7.80;;;2.55;;
52888;SDS011;41413;52.770;6.892;2022-07-15T05:10:33;9.85;;;2.53;;
52888;SDS011;41413;52.770;6.892;2022-07-15T05:13:04;5.38;;;2.72;;
52888;SDS011;41413;52.770;6.892;2022-07-15T05:15:30;6.07;;;2.45;;
52888;SDS011;41413;52.770;6.892;2022-07-15T05:17:57;7.45;;;2.90;;
52888;SDS011;41413;52.770;6.892;2022-07-15T05:20:24;6.60;;;2.28;;
52888;SDS011;41413;52.770;6.892;2022-07-15T05:22:51;5.05;;;2.40;;
52888;SDS011;41413;52.770;6.892;2022-07-15T05:25:18;5.60;;;2.50;;
52888;SDS011;41413;52.770;6.892;2022-07-15T05:27:44;6.53;;;2.40;;
52888;SDS011;41413;52.770;6.892;2022-07-15T05:30:12;7.47;;;2.17;;
52888;SDS011;41413;52.770;6.892;2022-07-15T05:32:39;8.00;;;2.58;;
52888;SDS011;41413;52.770;6.892;2022-07-15T05:35:06;9.55;;;3.05;;
52888;SDS011;41413;52.770;6.892;2022-07-15T05:37:36;3.05;;;2.35;;
52888;SDS011;41413;52.770;6.892;2022-07-15T05:40:07;5.00;;;2.13;;
52888;SDS011;41413;52.770;6.892;2022-07-15T05:42:35;2.88;;;2.13;;
52888;SDS011;41413;52.770;6.892;2022-07-15T05:45:02;3.85;;;2.28;;
52888;SDS011;41413;52.770;6.892;2022-07-15T05:47:29;4.72;;;2.83;;
52888;SDS011;41413;52.770;6.892;2022-07-15T05:49:56;5.20;;;2.10;;
52888;SDS011;41413;52.770;6.892;2022-07-15T05:52:22;6.78;;;2.63;;
52888;SDS011;41413;52.770;6.892;2022-07-15T05:54:49;6.50;;;1.92;;
52888;SDS011;41413;52.770;6.892;2022-07-15T05:57:16;6.78;;;2.10;;
52888;SDS011;41413;52.770;6.892;2022-07-15T05:59:42;4.97;;;1.85;;
52888;SDS011;41413;52.770;6.892;2022-07-15T06:02:09;8.30;;;2.10;;
52888;SDS011;41413;52.770;6.892;2022-07-15T06:04:36;4.97;;;1.67;;
52888;SDS011;41413;52.770;6.892;2022-07-15T06:07:03;9.65;;;2.33;;
52888;SDS011;41413;52.770;6.892;2022-07-15T06:09:30;3.10;;;1.80;;
52888;SDS011;41413;52.770;6.892;2022-07-15T06:11:56;7.38;;;2.20;;
52888;SDS011;41413;52.770;6.892;2022-07-15T06:14:24;3.90;;;1.73;;
52888;SDS011;41413;52.770;6.892;2022-07-15T06:16:51;5.60;;;1.98;;
52888;SDS011;41413;52.770;6.892;2022-07-15T06:19:18;7.22;;;1.83;;
52888;SDS011;41413;52.770;6.892;2022-07-15T06:21:45;2.08;;;1.75;;
52888;SDS011;41413;52.770;6.892;2022-07-15T06:24:11;4.25;;;1.85;;
52888;SDS011;41413;52.770;6.892;2022-07-15T06:26:38;4.40;;;2.38;;
52888;SDS011;41413;52.770;6.892;2022-07-15T06:29:05;6.13;;;1.92;;
52888;SDS011;41413;52.770;6.892;2022-07-15T06:31:32;7.40;;;1.95;;
52888;SDS011;41413;52.770;6.892;2022-07-15T06:33:59;4.40;;;1.45;;
52888;SDS011;41413;52.770;6.892;2022-07-15T06:36:26;2.35;;;1.70;;
52888;SDS011;41413;52.770;6.892;2022-07-15T06:38:53;3.80;;;1.65;;
52888;SDS011;41413;52.770;6.892;2022-07-15T06:41:20;1.50;;;1.40;;
52888;SDS011;41413;52.770;6.892;2022-07-15T06:43:49;2.08;;;1.88;;
52888;SDS011;41413;52.770;6.892;2022-07-15T06:46:16;2.40;;;1.00;;
52888;SDS011;41413;52.770;6.892;2022-07-15T06:48:43;2.15;;;1.35;;
52888;SDS011;41413;52.770;6.892;2022-07-15T06:51:10;3.13;;;1.15;;
52888;SDS011;41413;52.770;6.892;2022-07-15T06:53:37;1.38;;;1.13;;
52888;SDS011;41413;52.770;6.892;2022-07-15T06:56:04;1.75;;;0.93;;
52888;SDS011;41413;52.770;6.892;2022-07-15T06:58:31;1.55;;;1.13;;
52888;SDS011;41413;52.770;6.892;2022-07-15T07:00:58;1.23;;;1.13;;
52888;SDS011;41413;52.770;6.892;2022-07-15T07:03:27;1.83;;;1.13;;
52888;SDS011;41413;52.770;6.892;2022-07-15T07:06:14;4.60;;;1.63;;
52888;SDS011;41413;52.770;6.892;2022-07-15T07:08:41;1.92;;;1.23;;
52888;SDS011;41413;52.770;6.892;2022-07-15T07:11:07;0.93;;;0.80;;
52888;SDS011;41413;52.770;6.892;2022-07-15T07:13:34;3.58;;;1.60;;
52888;SDS011;41413;52.770;6.892;2022-07-15T07:16:01;2.65;;;1.40;;
52888;SDS011;41413;52.770;6.892;2022-07-15T07:18:28;4.07;;;1.35;;
52888;SDS011;41413;52.770;6.892;2022-07-15T07:20:55;2.70;;;1.40;;
52888;SDS011;41413;52.770;6.892;2022-07-15T07:23:23;2.47;;;1.20;;
52888;SDS011;41413;52.770;6.892;2022-07-15T07:25:53;4.65;;;1.40;;
52888;SDS011;41413;52.770;6.892;2022-07-15T07:28:20;3.72;;;1.48;;
52888;SDS011;41413;52.770;6.892;2022-07-15T07:30:47;3.70;;;1.17;;
52888;SDS011;41413;52.770;6.892;2022-07-15T07:33:15;2.75;;;1.42;;
52888;SDS011;41413;52.770;6.892;2022-07-15T07:35:42;3.50;;;1.50;;
52888;SDS011;41413;52.770;6.892;2022-07-15T07:38:10;3.97;;;1.40;;
52888;SDS011;41413;52.770;6.892;2022-07-15T07:40:37;5.65;;;1.67;;
52888;SDS011;41413;52.770;6.892;2022-07-15T07:43:04;6.50;;;1.73;;
52888;SDS011;41413;52.770;6.892;2022-07-15T07:45:31;3.92;;;1.98;;
52888;SDS011;41413;52.770;6.892;2022-07-15T07:47:57;5.25;;;1.40;;
52888;SDS011;41413;52.770;6.892;2022-07-15T07:50:24;2.40;;;1.48;;
52888;SDS011;41413;52.770;6.892;2022-07-15T07:52:52;7.45;;;1.88;;
52888;SDS011;41413;52.770;6.892;2022-07-15T07:55:20;2.85;;;1.65;;
52888;SDS011;41413;52.770;6.892;2022-07-15T07:57:53;3.10;;;1.52;;
52888;SDS011;41413;52.770;6.892;2022-07-15T08:00:21;3.30;;;1.73;;
52888;SDS011;41413;52.770;6.892;2022-07-15T08:02:49;2.13;;;1.20;;
52888;SDS011;41413;52.770;6.892;2022-07-15T08:05:16;2.00;;;1.45;;
52888;SDS011;41413;52.770;6.892;2022-07-15T08:07:50;4.50;;;1.42;;
52888;SDS011;41413;52.770;6.892;2022-07-15T08:10:17;3.13;;;1.13;;
52888;SDS011;41413;52.770;6.892;2022-07-15T08:12:47;7.63;;;1.42;;
52888;SDS011;41413;52.770;6.892;2022-07-15T08:15:13;4.32;;;1.50;;
52888;SDS011;41413;52.770;6.892;2022-07-15T08:17:41;1.73;;;1.58;;
52888;SDS011;41413;52.770;6.892;2022-07-15T08:20:09;2.28;;;1.52;;
52888;SDS011;41413;52.770;6.892;2022-07-15T08:22:37;3.22;;;1.17;;
52888;SDS011;41413;52.770;6.892;2022-07-15T08:25:04;3.28;;;1.08;;
52888;SDS011;41413;52.770;6.892;2022-07-15T08:27:32;4.90;;;1.40;;
52888;SDS011;41413;52.770;6.892;2022-07-15T08:29:59;4.47;;;1.88;;
52888;SDS011;41413;52.770;6.892;2022-07-15T08:32:25;1.13;;;1.02;;
52888;SDS011;41413;52.770;6.892;2022-07-15T08:34:52;4.57;;;1.30;;
52888;SDS011;41413;52.770;6.892;2022-07-15T08:37:18;2.97;;;1.55;;
52888;SDS011;41413;52.770;6.892;2022-07-15T08:39:45;1.50;;;1.40;;
52888;SDS011;41413;52.770;6.892;2022-07-15T08:42:12;2.72;;;1.48;;
52888;SDS011;41413;52.770;6.892;2022-07-15T08:44:40;1.63;;;1.50;;
52888;SDS011;41413;52.770;6.892;2022-07-15T08:47:07;1.65;;;1.55;;
52888;SDS011;41413;52.770;6.892;2022-07-15T08:49:57;2.78;;;1.38;;
52888;SDS011;41413;52.770;6.892;2022-07-15T08:52:25;4.00;;;1.48;;
52888;SDS011;41413;52.770;6.892;2022-07-15T08:54:52;3.65;;;1.25;;
52888;SDS011;41413;52.770;6.892;2022-07-15T08:57:19;1.83;;;1.35;;
52888;SDS011;41413;52.770;6.892;2022-07-15T08:59:46;1.27;;;1.17;;
52888;SDS011;41413;52.770;6.892;2022-07-15T09:02:13;2.05;;;1.20;;
52888;SDS011;41413;52.770;6.892;2022-07-15T09:10:21;2.38;;;1.67;;
52888;SDS011;41413;52.770;6.892;2022-07-15T09:12:50;3.10;;;1.05;;
52888;SDS011;41413;52.770;6.892;2022-07-15T09:15:36;3.78;;;1.33;;
52888;SDS011;41413;52.770;6.892;2022-07-15T09:18:16;1.48;;;1.38;;
52888;SDS011;41413;52.770;6.892;2022-07-15T09:20:46;1.55;;;1.45;;
52888;SDS011;41413;52.770;6.892;2022-07-15T09:23:14;3.80;;;1.50;;
52888;SDS011;41413;52.770;6.892;2022-07-15T09:25:47;1.90;;;1.30;;
52888;SDS011;41413;52.770;6.892;2022-07-15T09:28:18;1.73;;;1.10;;
52888;SDS011;41413;52.770;6.892;2022-07-15T09:30:45;2.20;;;1.40;;
52888;SDS011;41413;52.770;6.892;2022-07-15T09:33:32;1.65;;;1.55;;
52888;SDS011;41413;52.770;6.892;2022-07-15T09:36:03;1.98;;;1.40;;
52888;SDS011;41413;52.770;6.892;2022-07-15T09:41:07;1.75;;;1.40;;
52888;SDS011;41413;52.770;6.892;2022-07-15T09:43:49;2.42;;;1.80;;
52888;SDS011;41413;52.770;6.892;2022-07-15T09:46:19;3.50;;;1.10;;
52888;SDS011;41413;52.770;6.892;2022-07-15T09:48:48;1.63;;;1.25;;
52888;SDS011;41413;52.770;6.892;2022-07-15T09:51:16;1.77;;;1.67;;
52888;SDS011;41413;52.770;6.892;2022-07-15T09:53:44;1.10;;;1.00;;
52888;SDS011;41413;52.770;6.892;2022-07-15T09:56:15;2.72;;;1.42;;
52888;SDS011;41413;52.770;6.892;2022-07-15T09:58:47;1.20;;;1.20;;
52888;SDS011;41413;52.770;6.892;2022-07-15T10:01:14;1.65;;;1.25;;
52888;SDS011;41413;52.770;6.892;2022-07-15T10:03:41;1.50;;;1.40;;
52888;SDS011;41413;52.770;6.892;2022-07-15T10:06:09;3.42;;;1.55;;
52888;SDS011;41413;52.770;6.892;2022-07-15T10:08:40;2.92;;;1.48;;
52888;SDS011;41413;52.770;6.892;2022-07-15T10:11:12;1.67;;;1.35;;
52888;SDS011;41413;52.770;6.892;2022-07-15T10:16:34;2.38;;;1.50;;
52888;SDS011;41413;52.770;6.892;2022-07-15T10:21:45;1.52;;;0.90;;
52888;SDS011;41413;52.770;6.892;2022-07-15T10:24:35;2.20;;;1.50;;
52888;SDS011;41413;52.770;6.892;2022-07-15T10:29:51;1.30;;;1.20;;
52888;SDS011;41413;52.770;6.892;2022-07-15T10:32:19;1.48;;;1.10;;
52888;SDS011;41413;52.770;6.892;2022-07-15T10:34:46;1.80;;;1.20;;
52888;SDS011;41413;52.770;6.892;2022-07-15T10:37:14;4.05;;;1.27;;
52888;SDS011;41413;52.770;6.892;2022-07-15T10:39:54;1.02;;;0.82;;
52888;SDS011;41413;52.770;6.892;2022-07-15T10:42:27;2.67;;;1.00;;
52888;SDS011;41413;52.770;6.892;2022-07-15T10:47:27;2.35;;;1.00;;
52888;SDS011;41413;52.770;6.892;2022-07-15T10:49:54;2.58;;;1.45;;
52888;SDS011;41413;52.770;6.892;2022-07-15T10:52:22;7.90;;;1.63;;
52888;SDS011;41413;52.770;6.892;2022-07-15T11:03:06;5.35;;;1.35;;
52888;SDS011;41413;52.770;6.892;2022-07-15T11:06:21;1.02;;;1.02;;
52888;SDS011;41413;52.770;6.892;2022-07-15T11:13:42;1.23;;;1.15;;
52888;SDS011;41413;52.770;6.892;2022-07-15T11:16:20;4.82;;;1.48;;
52888;SDS011;41413;52.770;6.892;2022-07-15T11:21:20;1.33;;;1.20;;
52888;SDS011;41413;52.770;6.892;2022-07-15T11:23:48;1.15;;;1.05;;
52888;SDS011;41413;52.770;6.892;2022-07-15T11:26:16;1.00;;;1.00;;
52888;SDS011;41413;52.770;6.892;2022-07-15T11:28:50;1.50;;;1.33;;
52888;SDS011;41413;52.770;6.892;2022-07-15T11:31:20;1.65;;;1.55;;
52888;SDS011;41413;52.770;6.892;2022-07-15T11:33:54;1.67;;;1.17;;
52888;SDS011;41413;52.770;6.892;2022-07-15T11:36:21;1.75;;;1.05;;
52888;SDS011;41413;52.770;6.892;2022-07-15T11:38:50;1.02;;;0.90;;
52888;SDS011;41413;52.770;6.892;2022-07-15T11:41:17;1.85;;;1.30;;
52888;SDS011;41413;52.770;6.892;2022-07-15T11:44:04;0.95;;;0.90;;
52888;SDS011;41413;52.770;6.892;2022-07-15T11:46:50;1.02;;;1.02;;
52888;SDS011;41413;52.770;6.892;2022-07-15T11:49:28;3.47;;;1.77;;
52888;SDS011;41413;52.770;6.892;2022-07-15T11:52:05;1.98;;;1.08;;
52888;SDS011;41413;52.770;6.892;2022-07-15T11:54:36;2.85;;;1.58;;
52888;SDS011;41413;52.770;6.892;2022-07-15T11:57:05;2.25;;;1.40;;
52888;SDS011;41413;52.770;6.892;2022-07-15T11:59:34;3.63;;;1.23;;
52888;SDS011;41413;52.770;6.892;2022-07-15T12:02:04;2.15;;;1.13;;
52888;SDS011;41413;52.770;6.892;2022-07-15T12:04:35;2.03;;;1.20;;
52888;SDS011;41413;52.770;6.892;2022-07-15T12:07:04;1.27;;;1.17;;
52888;SDS011;41413;52.770;6.892;2022-07-15T12:09:44;1.25;;;1.20;;
52888;SDS011;41413;52.770;6.892;2022-07-15T12:12:12;1.80;;;1.13;;
52888;SDS011;41413;52.770;6.892;2022-07-15T12:14:39;2.05;;;1.38;;
52888;SDS011;41413;52.770;6.892;2022-07-15T12:17:08;1.83;;;1.08;;
52888;SDS011;41413;52.770;6.892;2022-07-15T12:19:35;1.10;;;0.98;;
52888;SDS011;41413;52.770;6.892;2022-07-15T12:22:06;1.77;;;1.48;;
52888;SDS011;41413;52.770;6.892;2022-07-15T12:27:07;7.15;;;1.75;;
52888;SDS011;41413;52.770;6.892;2022-07-15T12:29:34;1.00;;;1.00;;
52888;SDS011;41413;52.770;6.892;2022-07-15T12:32:21;2.60;;;1.42;;
52888;SDS011;41413;52.770;6.892;2022-07-15T12:34:56;1.50;;;1.40;;
52888;SDS011;41413;52.770;6.892;2022-07-15T12:37:28;2.40;;;1.30;;
52888;SDS011;41413;52.770;6.892;2022-07-15T12:40:20;1.65;;;1.55;;
52888;SDS011;41413;52.770;6.892;2022-07-15T12:42:49;1.77;;;1.50;;
52888;SDS011;41413;52.770;6.892;2022-07-15T12:45:17;1.80;;;1.67;;
52888;SDS011;41413;52.770;6.892;2022-07-15T12:53:21;1.73;;;1.38;;
52888;SDS011;41413;52.770;6.892;2022-07-15T12:55:51;2.22;;;1.17;;
52888;SDS011;41413;52.770;6.892;2022-07-15T12:58:23;5.38;;;1.63;;
52888;SDS011;41413;52.770;6.892;2022-07-15T13:00:51;1.27;;;1.25;;
52888;SDS011;41413;52.770;6.892;2022-07-15T13:03:19;1.17;;;1.10;;
52888;SDS011;41413;52.770;6.892;2022-07-15T13:05:51;2.90;;;1.70;;
52888;SDS011;41413;52.770;6.892;2022-07-15T13:08:23;3.78;;;1.50;;
52888;SDS011;41413;52.770;6.892;2022-07-15T13:10:52;1.40;;;1.23;;
52888;SDS011;41413;52.770;6.892;2022-07-15T13:13:22;1.80;;;1.65;;
52888;SDS011;41413;52.770;6.892;2022-07-15T13:15:50;4.03;;;1.55;;
52888;SDS011;41413;52.770;6.892;2022-07-15T13:18:18;2.50;;;1.23;;
52888;SDS011;41413;52.770;6.892;2022-07-15T13:20:45;0.85;;;0.85;;
52888;SDS011;41413;52.770;6.892;2022-07-15T13:23:13;2.78;;;1.50;;
52888;SDS011;41413;52.770;6.892;2022-07-15T13:25:40;2.10;;;1.35;;
52888;SDS011;41413;52.770;6.892;2022-07-15T13:28:08;2.13;;;1.30;;
52888;SDS011;41413;52.770;6.892;2022-07-15T13:30:35;1.50;;;1.40;;
52888;SDS011;41413;52.770;6.892;2022-07-15T13:33:03;3.10;;;1.45;;
52888;SDS011;41413;52.770;6.892;2022-07-15T13:35:31;2.00;;;1.30;;
52888;SDS011;41413;52.770;6.892;2022-07-15T13:37:58;1.40;;;1.27;;
52888;SDS011;41413;52.770;6.892;2022-07-15T13:40:25;4.35;;;1.70;;
52888;SDS011;41413;52.770;6.892;2022-07-15T13:42:51;2.97;;;1.42;;
52888;SDS011;41413;52.770;6.892;2022-07-15T13:45:18;1.02;;;1.02;;
52888;SDS011;41413;52.770;6.892;2022-07-15T13:47:45;2.05;;;1.40;;
52888;SDS011;41413;52.770;6.892;2022-07-15T13:50:12;3.45;;;1.80;;
52888;SDS011;41413;52.770;6.892;2022-07-15T13:53:00;2.67;;;1.73;;
52888;SDS011;41413;52.770;6.892;2022-07-15T13:55:27;2.50;;;1.55;;
52888;SDS011;41413;52.770;6.892;2022-07-15T13:57:55;2.58;;;1.70;;
52888;SDS011;41413;52.770;6.892;2022-07-15T14:00:23;3.33;;;1.88;;
52888;SDS011;41413;52.770;6.892;2022-07-15T14:02:51;2.70;;;1.63;;
52888;SDS011;41413;52.770;6.892;2022-07-15T14:05:21;1.85;;;1.33;;
52888;SDS011;41413;52.770;6.892;2022-07-15T14:07:48;1.95;;;1.50;;
52888;SDS011;41413;52.770;6.892;2022-07-15T14:10:15;2.53;;;1.52;;
52888;SDS011;41413;52.770;6.892;2022-07-15T14:12:42;1.60;;;1.50;;
52888;SDS011;41413;52.770;6.892;2022-07-15T14:15:10;1.27;;;1.27;;
52888;SDS011;41413;52.770;6.892;2022-07-15T14:17:38;3.65;;;1.60;;
52888;SDS011;41413;52.770;6.892;2022-07-15T14:20:05;1.88;;;1.75;;
52888;SDS011;41413;52.770;6.892;2022-07-15T14:22:32;4.65;;;1.40;;
52888;SDS011;41413;52.770;6.892;2022-07-15T14:24:59;2.33;;;1.65;;
52888;SDS011;41413;52.770;6.892;2022-07-15T14:27:26;2.92;;;1.38;;
52888;SDS011;41413;52.770;6.892;2022-07-15T14:29:52;3.40;;;1.13;;
52888;SDS011;41413;52.770;6.892;2022-07-15T14:32:27;1.92;;;1.55;;
52888;SDS011;41413;52.770;6.892;2022-07-15T14:34:57;1.33;;;1.23;;
52888;SDS011;41413;52.770;6.892;2022-07-15T14:37:24;2.88;;;1.58;;
52888;SDS011;41413;52.770;6.892;2022-07-15T14:40:00;3.88;;;1.55;;
52888;SDS011;41413;52.770;6.892;2022-07-15T14:42:28;4.65;;;1.65;;
52888;SDS011;41413;52.770;6.892;2022-07-15T14:44:55;1.40;;;1.30;;
52888;SDS011;41413;52.770;6.892;2022-07-15T14:47:23;4.63;;;1.90;;
52888;SDS011;41413;52.770;6.892;2022-07-15T14:49:50;1.60;;;1.40;;
52888;SDS011;41413;52.770;6.892;2022-07-15T14:52:17;1.55;;;1.50;;
52888;SDS011;41413;52.770;6.892;2022-07-15T14:54:44;1.85;;;1.75;;
52888;SDS011;41413;52.770;6.892;2022-07-15T14:57:11;1.45;;;1.42;;
52888;SDS011;41413;52.770;6.892;2022-07-15T14:59:38;1.80;;;1.70;;
52888;SDS011;41413;52.770;6.892;2022-07-15T15:02:06;3.33;;;1.60;;
52888;SDS011;41413;52.770;6.892;2022-07-15T15:04:34;2.30;;;1.55;;
52888;SDS011;41413;52.770;6.892;2022-07-15T15:07:02;2.35;;;1.73;;
52888;SDS011;41413;52.770;6.892;2022-07-15T15:09:29;3.17;;;1.35;;
52888;SDS011;41413;52.770;6.892;2022-07-15T15:11:56;1.92;;;1.50;;
52888;SDS011;41413;52.770;6.892;2022-07-15T15:14:27;1.77;;;1.67;;
52888;SDS011;41413;52.770;6.892;2022-07-15T15:16:54;1.42;;;1.33;;
52888;SDS011;41413;52.770;6.892;2022-07-15T15:19:30;1.60;;;1.48;;
52888;SDS011;41413;52.770;6.892;2022-07-15T15:21:57;1.73;;;1.55;;
52888;SDS011;41413;52.770;6.892;2022-07-15T15:24:24;1.85;;;1.70;;
52888;SDS011;41413;52.770;6.892;2022-07-15T15:26:50;2.08;;;1.90;;
52888;SDS011;41413;52.770;6.892;2022-07-15T15:29:18;1.88;;;1.77;;
52888;SDS011;41413;52.770;6.892;2022-07-15T15:31:45;2.60;;;1.55;;
52888;SDS011;41413;52.770;6.892;2022-07-15T15:34:14;4.82;;;1.83;;
52888;SDS011;41413;52.770;6.892;2022-07-15T15:36:41;2.08;;;1.95;;
52888;SDS011;41413;52.770;6.892;2022-07-15T15:39:09;2.13;;;2.00;;
52888;SDS011;41413;52.770;6.892;2022-07-15T15:41:36;1.25;;;1.15;;
52888;SDS011;41413;52.770;6.892;2022-07-15T15:44:04;1.63;;;1.52;;